sensor_id;sensor_type;location;lat;lon;timestamp;P1;durP1;ratioP1;P2;durP2;ratioP2
18172;SDS011;9211;48.818;9.312;2023-04-25T00:00:55;4.03;;;1.70;;
18172;SDS011;9211;48.818;9.312;2023-04-25T00:03:22;3.47;;;1.70;;
18172;SDS011;9211;48.818;9.312;2023-04-25T00:05:50;2.80;;;1.60;;
18172;SDS011;9211;48.818;9.312;2023-04-25T00:08:19;2.65;;;1.60;;
18172;SDS011;9211;48.818;9.312;2023-04-25T00:10:46;3.28;;;1.40;;
18172;SDS011;9211;48.818;9.312;2023-04-25T00:13:13;2.95;;;1.55;;
18172;SDS011;9211;48.818;9.312;2023-04-25T00:15:42;2.45;;;1.40;;
18172;SDS011;9211;48.818;9.312;2023-04-25T00:18:13;4.60;;;1.40;;
18172;SDS011;9211;48.818;9.312;2023-04-25T00:20:40;2.53;;;1.48;;
18172;SDS011;9211;48.818;9.312;2023-04-25T00:23:11;3.05;;;1.60;;
18172;SDS011;9211;48.818;9.312;2023-04-25T00:25:44;2.67;;;1.50;;
18172;SDS011;9211;48.818;9.312;2023-04-25T00:28:11;2.70;;;1.52;;
18172;SDS011;9211;48.818;9.312;2023-04-25T00:30:38;3.00;;;1.50;;
18172;SDS011;9211;48.818;9.312;2023-04-25T00:33:05;3.58;;;1.50;;
18172;SDS011;9211;48.818;9.312;2023-04-25T00:35:32;3.30;;;1.70;;
18172;SDS011;9211;48.818;9.312;2023-04-25T00:38:00;4.28;;;1.60;;
18172;SDS011;9211;48.818;9.312;2023-04-25T00:40:27;3.45;;;1.60;;
18172;SDS011;9211;48.818;9.312;2023-04-25T00:42:55;2.72;;;1.67;;
18172;SDS011;9211;48.818;9.312;2023-04-25T00:45:22;3.00;;;1.50;;
18172;SDS011;9211;48.818;9.312;2023-04-25T00:47:54;3.63;;;1.50;;
18172;SDS011;9211;48.818;9.312;2023-04-25T00:50:22;2.60;;;1.63;;
18172;SDS011;9211;48.818;9.312;2023-04-25T00:52:49;3.55;;;1.40;;
18172;SDS011;9211;48.818;9.312;2023-04-25T00:55:17;2.23;;;1.43;;
18172;SDS011;9211;48.818;9.312;2023-04-25T00:57:44;2.00;;;1.50;;
18172;SDS011;9211;48.818;9.312;2023-04-25T01:00:13;3.13;;;1.60;;
18172;SDS011;9211;48.818;9.312;2023-04-25T01:02:42;2.07;;;1.50;;
18172;SDS011;9211;48.818;9.312;2023-04-25T01:05:10;4.32;;;1.70;;
18172;SDS011;9211;48.818;9.312;2023-04-25T01:07:38;2.50;;;1.60;;
18172;SDS011;9211;48.818;9.312;2023-04-25T01:10:06;3.30;;;1.60;;
18172;SDS011;9211;48.818;9.312;2023-04-25T01:12:36;2.83;;;1.75;;
18172;SDS011;9211;48.818;9.312;2023-04-25T01:15:03;2.70;;;1.60;;
18172;SDS011;9211;48.818;9.312;2023-04-25T01:17:33;3.53;;;1.83;;
18172;SDS011;9211;48.818;9.312;2023-04-25T01:20:01;4.55;;;1.90;;
18172;SDS011;9211;48.818;9.312;2023-04-25T01:22:31;3.53;;;1.80;;
18172;SDS011;9211;48.818;9.312;2023-04-25T01:24:58;3.78;;;1.80;;
18172;SDS011;9211;48.818;9.312;2023-04-25T01:27:26;4.30;;;1.80;;
18172;SDS011;9211;48.818;9.312;2023-04-25T01:29:54;4.25;;;1.98;;
18172;SDS011;9211;48.818;9.312;2023-04-25T01:32:22;3.87;;;1.90;;
18172;SDS011;9211;48.818;9.312;2023-04-25T01:34:49;3.22;;;1.70;;
18172;SDS011;9211;48.818;9.312;2023-04-25T01:37:18;4.82;;;1.90;;
18172;SDS011;9211;48.818;9.312;2023-04-25T01:39:47;2.67;;;1.80;;
18172;SDS011;9211;48.818;9.312;2023-04-25T01:42:15;3.28;;;1.90;;
18172;SDS011;9211;48.818;9.312;2023-04-25T01:44:42;3.80;;;1.90;;
18172;SDS011;9211;48.818;9.312;2023-04-25T01:47:09;2.80;;;1.80;;
18172;SDS011;9211;48.818;9.312;2023-04-25T01:49:36;4.40;;;2.00;;
18172;SDS011;9211;48.818;9.312;2023-04-25T01:52:03;4.20;;;1.80;;
18172;SDS011;9211;48.818;9.312;2023-04-25T01:54:30;4.45;;;1.90;;
18172;SDS011;9211;48.818;9.312;2023-04-25T01:56:59;3.25;;;1.90;;
18172;SDS011;9211;48.818;9.312;2023-04-25T01:59:27;3.67;;;2.10;;
18172;SDS011;9211;48.818;9.312;2023-04-25T02:02:03;3.40;;;2.07;;
18172;SDS011;9211;48.818;9.312;2023-04-25T02:04:32;3.03;;;2.05;;
18172;SDS011;9211;48.818;9.312;2023-04-25T02:07:00;6.22;;;2.45;;
18172;SDS011;9211;48.818;9.312;2023-04-25T02:09:37;4.43;;;2.03;;
18172;SDS011;9211;48.818;9.312;2023-04-25T02:12:07;3.00;;;1.90;;
18172;SDS011;9211;48.818;9.312;2023-04-25T02:14:58;3.50;;;2.00;;
18172;SDS011;9211;48.818;9.312;2023-04-25T02:17:34;3.83;;;2.17;;
18172;SDS011;9211;48.818;9.312;2023-04-25T02:20:00;4.05;;;2.30;;
18172;SDS011;9211;48.818;9.312;2023-04-25T02:22:29;4.43;;;2.10;;
18172;SDS011;9211;48.818;9.312;2023-04-25T02:24:56;5.43;;;2.40;;
18172;SDS011;9211;48.818;9.312;2023-04-25T02:27:25;4.30;;;2.20;;
18172;SDS011;9211;48.818;9.312;2023-04-25T02:29:52;4.53;;;2.30;;
18172;SDS011;9211;48.818;9.312;2023-04-25T02:32:18;6.47;;;2.37;;
18172;SDS011;9211;48.818;9.312;2023-04-25T02:34:46;4.95;;;2.28;;
18172;SDS011;9211;48.818;9.312;2023-04-25T02:37:13;5.03;;;2.33;;
18172;SDS011;9211;48.818;9.312;2023-04-25T02:39:40;4.43;;;2.30;;
18172;SDS011;9211;48.818;9.312;2023-04-25T02:42:07;3.45;;;2.38;;
18172;SDS011;9211;48.818;9.312;2023-04-25T02:44:36;4.93;;;2.28;;
18172;SDS011;9211;48.818;9.312;2023-04-25T02:47:04;7.00;;;2.20;;
18172;SDS011;9211;48.818;9.312;2023-04-25T02:49:31;4.70;;;2.20;;
18172;SDS011;9211;48.818;9.312;2023-04-25T02:51:58;5.70;;;2.50;;
18172;SDS011;9211;48.818;9.312;2023-04-25T02:54:26;6.13;;;2.40;;
18172;SDS011;9211;48.818;9.312;2023-04-25T02:56:54;4.55;;;2.45;;
18172;SDS011;9211;48.818;9.312;2023-04-25T02:59:25;4.47;;;2.28;;
18172;SDS011;9211;48.818;9.312;2023-04-25T03:01:54;5.07;;;2.53;;
18172;SDS011;9211;48.818;9.312;2023-04-25T03:04:21;4.13;;;2.40;;
18172;SDS011;9211;48.818;9.312;2023-04-25T03:06:49;3.97;;;2.42;;
18172;SDS011;9211;48.818;9.312;2023-04-25T03:09:19;4.13;;;2.30;;
18172;SDS011;9211;48.818;9.312;2023-04-25T03:11:46;5.15;;;2.40;;
18172;SDS011;9211;48.818;9.312;2023-04-25T03:14:13;4.30;;;2.33;;
18172;SDS011;9211;48.818;9.312;2023-04-25T03:16:40;5.80;;;2.58;;
18172;SDS011;9211;48.818;9.312;2023-04-25T03:19:09;4.55;;;2.30;;
18172;SDS011;9211;48.818;9.312;2023-04-25T03:21:36;4.10;;;2.30;;
18172;SDS011;9211;48.818;9.312;2023-04-25T03:24:04;5.17;;;2.60;;
18172;SDS011;9211;48.818;9.312;2023-04-25T03:26:31;3.70;;;2.47;;
18172;SDS011;9211;48.818;9.312;2023-04-25T03:28:58;4.82;;;2.65;;
18172;SDS011;9211;48.818;9.312;2023-04-25T03:31:26;5.07;;;2.47;;
18172;SDS011;9211;48.818;9.312;2023-04-25T03:33:53;5.57;;;2.88;;
18172;SDS011;9211;48.818;9.312;2023-04-25T03:36:23;4.20;;;2.47;;
18172;SDS011;9211;48.818;9.312;2023-04-25T03:38:50;5.82;;;2.80;;
18172;SDS011;9211;48.818;9.312;2023-04-25T03:41:20;4.83;;;2.90;;
18172;SDS011;9211;48.818;9.312;2023-04-25T03:43:57;6.78;;;2.78;;
18172;SDS011;9211;48.818;9.312;2023-04-25T03:46:26;6.13;;;2.70;;
18172;SDS011;9211;48.818;9.312;2023-04-25T03:48:52;4.90;;;2.40;;
18172;SDS011;9211;48.818;9.312;2023-04-25T03:51:26;5.43;;;2.53;;
18172;SDS011;9211;48.818;9.312;2023-04-25T03:53:52;4.53;;;2.30;;
18172;SDS011;9211;48.818;9.312;2023-04-25T03:56:38;5.30;;;2.40;;
18172;SDS011;9211;48.818;9.312;2023-04-25T03:59:15;4.05;;;2.20;;
18172;SDS011;9211;48.818;9.312;2023-04-25T04:01:42;4.55;;;2.30;;
18172;SDS011;9211;48.818;9.312;2023-04-25T04:04:09;3.47;;;2.30;;
18172;SDS011;9211;48.818;9.312;2023-04-25T04:06:37;4.90;;;2.40;;
18172;SDS011;9211;48.818;9.312;2023-04-25T04:09:25;3.58;;;2.10;;
18172;SDS011;9211;48.818;9.312;2023-04-25T04:11:54;5.97;;;2.22;;
18172;SDS011;9211;48.818;9.312;2023-04-25T04:14:21;3.63;;;2.10;;
18172;SDS011;9211;48.818;9.312;2023-04-25T04:16:50;4.55;;;2.20;;
18172;SDS011;9211;48.818;9.312;2023-04-25T04:19:17;4.40;;;2.10;;
18172;SDS011;9211;48.818;9.312;2023-04-25T04:22:03;5.85;;;2.20;;
18172;SDS011;9211;48.818;9.312;2023-04-25T04:24:30;4.07;;;2.10;;
18172;SDS011;9211;48.818;9.312;2023-04-25T04:27:01;4.55;;;2.10;;
18172;SDS011;9211;48.818;9.312;2023-04-25T04:29:33;4.43;;;2.60;;
18172;SDS011;9211;48.818;9.312;2023-04-25T04:32:09;4.88;;;2.42;;
18172;SDS011;9211;48.818;9.312;2023-04-25T04:34:36;6.63;;;2.55;;
18172;SDS011;9211;48.818;9.312;2023-04-25T04:37:05;4.45;;;2.35;;
18172;SDS011;9211;48.818;9.312;2023-04-25T04:39:33;5.10;;;2.63;;
18172;SDS011;9211;48.818;9.312;2023-04-25T04:42:06;4.40;;;2.30;;
18172;SDS011;9211;48.818;9.312;2023-04-25T04:45:09;4.90;;;2.30;;
18172;SDS011;9211;48.818;9.312;2023-04-25T04:47:58;4.65;;;2.13;;
18172;SDS011;9211;48.818;9.312;2023-04-25T04:50:28;5.63;;;2.80;;
18172;SDS011;9211;48.818;9.312;2023-04-25T04:53:19;6.00;;;2.30;;
18172;SDS011;9211;48.818;9.312;2023-04-25T04:56:13;4.45;;;2.10;;
18172;SDS011;9211;48.818;9.312;2023-04-25T04:59:09;5.47;;;2.20;;
18172;SDS011;9211;48.818;9.312;2023-04-25T05:01:57;6.60;;;2.30;;
18172;SDS011;9211;48.818;9.312;2023-04-25T05:04:44;8.20;;;2.40;;
18172;SDS011;9211;48.818;9.312;2023-04-25T05:07:30;5.25;;;2.63;;
18172;SDS011;9211;48.818;9.312;2023-04-25T05:10:25;5.82;;;2.63;;
18172;SDS011;9211;48.818;9.312;2023-04-25T05:12:55;5.75;;;2.40;;
18172;SDS011;9211;48.818;9.312;2023-04-25T05:15:22;5.70;;;2.60;;
18172;SDS011;9211;48.818;9.312;2023-04-25T05:18:16;6.45;;;2.70;;
18172;SDS011;9211;48.818;9.312;2023-04-25T05:21:06;5.63;;;2.90;;
18172;SDS011;9211;48.818;9.312;2023-04-25T05:23:53;4.28;;;2.60;;
18172;SDS011;9211;48.818;9.312;2023-04-25T05:26:38;6.80;;;3.10;;
18172;SDS011;9211;48.818;9.312;2023-04-25T05:29:25;8.10;;;3.80;;
18172;SDS011;9211;48.818;9.312;2023-04-25T05:32:10;7.47;;;4.23;;
18172;SDS011;9211;48.818;9.312;2023-04-25T05:34:37;6.30;;;3.43;;
18172;SDS011;9211;48.818;9.312;2023-04-25T05:37:11;5.43;;;3.20;;
18172;SDS011;9211;48.818;9.312;2023-04-25T05:39:50;6.33;;;3.43;;
18172;SDS011;9211;48.818;9.312;2023-04-25T05:42:32;4.77;;;2.90;;
18172;SDS011;9211;48.818;9.312;2023-04-25T05:45:07;6.00;;;2.90;;
18172;SDS011;9211;48.818;9.312;2023-04-25T05:47:53;5.43;;;3.10;;
18172;SDS011;9211;48.818;9.312;2023-04-25T05:50:36;5.53;;;3.17;;
18172;SDS011;9211;48.818;9.312;2023-04-25T05:53:14;6.00;;;3.42;;
18172;SDS011;9211;48.818;9.312;2023-04-25T05:55:42;8.18;;;3.63;;
18172;SDS011;9211;48.818;9.312;2023-04-25T05:58:22;6.53;;;3.65;;
18172;SDS011;9211;48.818;9.312;2023-04-25T06:00:49;5.40;;;3.60;;
18172;SDS011;9211;48.818;9.312;2023-04-25T06:03:16;5.28;;;3.60;;
18172;SDS011;9211;48.818;9.312;2023-04-25T06:05:44;6.35;;;3.80;;
18172;SDS011;9211;48.818;9.312;2023-04-25T06:08:11;5.65;;;3.60;;
18172;SDS011;9211;48.818;9.312;2023-04-25T06:10:38;5.93;;;4.00;;
18172;SDS011;9211;48.818;9.312;2023-04-25T06:13:05;4.40;;;3.17;;
18172;SDS011;9211;48.818;9.312;2023-04-25T06:15:35;5.40;;;3.42;;
18172;SDS011;9211;48.818;9.312;2023-04-25T06:18:02;6.72;;;4.00;;
18172;SDS011;9211;48.818;9.312;2023-04-25T06:20:29;6.90;;;3.50;;
18172;SDS011;9211;48.818;9.312;2023-04-25T06:22:58;4.68;;;3.50;;
18172;SDS011;9211;48.818;9.312;2023-04-25T06:25:48;6.75;;;3.78;;
18172;SDS011;9211;48.818;9.312;2023-04-25T06:28:15;6.97;;;3.40;;
18172;SDS011;9211;48.818;9.312;2023-04-25T06:30:44;6.15;;;3.35;;
18172;SDS011;9211;48.818;9.312;2023-04-25T06:33:16;6.72;;;3.60;;
18172;SDS011;9211;48.818;9.312;2023-04-25T06:35:44;4.27;;;3.30;;
18172;SDS011;9211;48.818;9.312;2023-04-25T06:38:12;6.15;;;3.30;;
18172;SDS011;9211;48.818;9.312;2023-04-25T06:40:45;4.43;;;3.33;;
18172;SDS011;9211;48.818;9.312;2023-04-25T06:43:12;5.40;;;3.42;;
18172;SDS011;9211;48.818;9.312;2023-04-25T06:46:03;4.63;;;3.33;;
18172;SDS011;9211;48.818;9.312;2023-04-25T06:48:32;5.23;;;3.60;;
18172;SDS011;9211;48.818;9.312;2023-04-25T06:51:00;5.40;;;3.38;;
18172;SDS011;9211;48.818;9.312;2023-04-25T06:53:27;5.97;;;3.53;;
18172;SDS011;9211;48.818;9.312;2023-04-25T06:56:00;5.38;;;3.60;;
18172;SDS011;9211;48.818;9.312;2023-04-25T06:58:59;5.20;;;3.47;;
18172;SDS011;9211;48.818;9.312;2023-04-25T07:01:33;4.53;;;3.20;;
18172;SDS011;9211;48.818;9.312;2023-04-25T07:04:04;4.72;;;3.10;;
18172;SDS011;9211;48.818;9.312;2023-04-25T07:06:32;4.45;;;3.28;;
18172;SDS011;9211;48.818;9.312;2023-04-25T07:08:59;5.15;;;3.58;;
18172;SDS011;9211;48.818;9.312;2023-04-25T07:11:27;5.55;;;3.38;;
18172;SDS011;9211;48.818;9.312;2023-04-25T07:13:55;5.55;;;3.30;;
18172;SDS011;9211;48.818;9.312;2023-04-25T07:16:22;4.63;;;3.30;;
18172;SDS011;9211;48.818;9.312;2023-04-25T07:18:51;4.17;;;3.40;;
18172;SDS011;9211;48.818;9.312;2023-04-25T07:21:18;7.03;;;4.20;;
18172;SDS011;9211;48.818;9.312;2023-04-25T07:23:46;6.97;;;4.10;;
18172;SDS011;9211;48.818;9.312;2023-04-25T07:26:17;6.00;;;4.05;;
18172;SDS011;9211;48.818;9.312;2023-04-25T07:29:04;8.07;;;4.07;;
18172;SDS011;9211;48.818;9.312;2023-04-25T07:31:31;7.82;;;4.47;;
18172;SDS011;9211;48.818;9.312;2023-04-25T07:33:59;5.88;;;4.03;;
18172;SDS011;9211;48.818;9.312;2023-04-25T07:36:26;6.78;;;4.30;;
18172;SDS011;9211;48.818;9.312;2023-04-25T07:38:54;6.60;;;4.13;;
18172;SDS011;9211;48.818;9.312;2023-04-25T07:41:21;6.72;;;3.90;;
18172;SDS011;9211;48.818;9.312;2023-04-25T07:43:48;8.13;;;4.30;;
18172;SDS011;9211;48.818;9.312;2023-04-25T07:46:15;9.75;;;4.70;;
18172;SDS011;9211;48.818;9.312;2023-04-25T07:48:43;5.63;;;3.97;;
18172;SDS011;9211;48.818;9.312;2023-04-25T07:51:11;6.07;;;3.97;;
18172;SDS011;9211;48.818;9.312;2023-04-25T07:53:42;5.70;;;3.90;;
18172;SDS011;9211;48.818;9.312;2023-04-25T07:56:12;6.45;;;4.13;;
18172;SDS011;9211;48.818;9.312;2023-04-25T07:58:42;6.70;;;4.00;;
18172;SDS011;9211;48.818;9.312;2023-04-25T08:01:12;5.50;;;3.90;;
18172;SDS011;9211;48.818;9.312;2023-04-25T08:03:55;6.88;;;4.05;;
18172;SDS011;9211;48.818;9.312;2023-04-25T08:06:32;8.23;;;4.15;;
18172;SDS011;9211;48.818;9.312;2023-04-25T08:09:15;6.55;;;4.50;;
18172;SDS011;9211;48.818;9.312;2023-04-25T08:11:43;6.83;;;4.73;;
18172;SDS011;9211;48.818;9.312;2023-04-25T08:14:13;8.23;;;5.07;;
18172;SDS011;9211;48.818;9.312;2023-04-25T08:16:41;9.05;;;4.95;;
18172;SDS011;9211;48.818;9.312;2023-04-25T08:19:09;8.32;;;5.57;;
18172;SDS011;9211;48.818;9.312;2023-04-25T08:21:38;6.60;;;3.60;;
18172;SDS011;9211;48.818;9.312;2023-04-25T08:24:09;6.75;;;4.68;;
18172;SDS011;9211;48.818;9.312;2023-04-25T08:26:38;7.80;;;5.40;;
18172;SDS011;9211;48.818;9.312;2023-04-25T08:29:08;8.27;;;5.80;;
18172;SDS011;9211;48.818;9.312;2023-04-25T08:31:38;10.57;;;6.43;;
18172;SDS011;9211;48.818;9.312;2023-04-25T08:34:06;7.80;;;6.13;;
18172;SDS011;9211;48.818;9.312;2023-04-25T08:36:43;10.95;;;6.53;;
18172;SDS011;9211;48.818;9.312;2023-04-25T08:39:32;8.40;;;6.05;;
18172;SDS011;9211;48.818;9.312;2023-04-25T08:42:16;8.23;;;6.60;;
18172;SDS011;9211;48.818;9.312;2023-04-25T08:44:44;8.77;;;6.67;;
18172;SDS011;9211;48.818;9.312;2023-04-25T08:47:12;8.07;;;5.75;;
18172;SDS011;9211;48.818;9.312;2023-04-25T08:49:47;8.13;;;5.72;;
18172;SDS011;9211;48.818;9.312;2023-04-25T08:52:18;8.40;;;5.77;;
18172;SDS011;9211;48.818;9.312;2023-04-25T08:54:48;10.30;;;5.80;;
18172;SDS011;9211;48.818;9.312;2023-04-25T08:57:18;11.32;;;5.95;;
18172;SDS011;9211;48.818;9.312;2023-04-25T08:59:47;10.98;;;5.90;;
18172;SDS011;9211;48.818;9.312;2023-04-25T09:02:15;11.35;;;6.03;;
18172;SDS011;9211;48.818;9.312;2023-04-25T09:04:47;8.27;;;5.93;;
18172;SDS011;9211;48.818;9.312;2023-04-25T09:07:15;10.13;;;5.82;;
18172;SDS011;9211;48.818;9.312;2023-04-25T09:09:47;11.15;;;6.55;;
18172;SDS011;9211;48.818;9.312;2023-04-25T09:12:17;8.40;;;4.65;;
18172;SDS011;9211;48.818;9.312;2023-04-25T09:15:00;7.30;;;4.82;;
18172;SDS011;9211;48.818;9.312;2023-04-25T09:17:54;7.18;;;5.32;;
18172;SDS011;9211;48.818;9.312;2023-04-25T09:20:22;7.35;;;5.72;;
18172;SDS011;9211;48.818;9.312;2023-04-25T09:22:50;8.88;;;6.03;;
18172;SDS011;9211;48.818;9.312;2023-04-25T09:25:35;10.93;;;6.18;;
18172;SDS011;9211;48.818;9.312;2023-04-25T09:28:05;9.70;;;6.23;;
18172;SDS011;9211;48.818;9.312;2023-04-25T09:30:33;9.70;;;6.22;;
18172;SDS011;9211;48.818;9.312;2023-04-25T09:33:09;11.43;;;7.00;;
18172;SDS011;9211;48.818;9.312;2023-04-25T09:35:43;15.95;;;7.20;;
18172;SDS011;9211;48.818;9.312;2023-04-25T09:38:24;15.40;;;7.72;;
18172;SDS011;9211;48.818;9.312;2023-04-25T09:40:58;9.77;;;7.30;;
18172;SDS011;9211;48.818;9.312;2023-04-25T09:43:42;9.30;;;6.78;;
18172;SDS011;9211;48.818;9.312;2023-04-25T09:46:13;8.80;;;5.95;;
18172;SDS011;9211;48.818;9.312;2023-04-25T09:48:47;9.67;;;6.40;;
18172;SDS011;9211;48.818;9.312;2023-04-25T09:51:18;15.50;;;7.28;;
18172;SDS011;9211;48.818;9.312;2023-04-25T09:53:46;12.23;;;6.97;;
18172;SDS011;9211;48.818;9.312;2023-04-25T09:56:43;13.30;;;7.13;;
18172;SDS011;9211;48.818;9.312;2023-04-25T09:59:14;10.27;;;6.68;;
18172;SDS011;9211;48.818;9.312;2023-04-25T10:01:42;10.93;;;6.65;;
18172;SDS011;9211;48.818;9.312;2023-04-25T10:04:22;9.05;;;6.07;;
18172;SDS011;9211;48.818;9.312;2023-04-25T10:06:57;9.47;;;6.50;;
18172;SDS011;9211;48.818;9.312;2023-04-25T10:09:26;10.65;;;6.15;;
18172;SDS011;9211;48.818;9.312;2023-04-25T10:11:58;8.43;;;5.85;;
18172;SDS011;9211;48.818;9.312;2023-04-25T10:14:26;9.18;;;5.10;;
18172;SDS011;9211;48.818;9.312;2023-04-25T10:16:57;7.90;;;4.60;;
18172;SDS011;9211;48.818;9.312;2023-04-25T10:19:24;5.93;;;4.60;;
18172;SDS011;9211;48.818;9.312;2023-04-25T10:21:52;10.70;;;4.88;;
18172;SDS011;9211;48.818;9.312;2023-04-25T10:24:24;7.20;;;4.50;;
18172;SDS011;9211;48.818;9.312;2023-04-25T10:26:51;6.78;;;3.55;;
18172;SDS011;9211;48.818;9.312;2023-04-25T10:29:23;6.97;;;3.33;;
18172;SDS011;9211;48.818;9.312;2023-04-25T10:31:51;5.65;;;3.60;;
18172;SDS011;9211;48.818;9.312;2023-04-25T10:34:18;3.95;;;2.70;;
18172;SDS011;9211;48.818;9.312;2023-04-25T10:36:50;3.63;;;2.20;;
18172;SDS011;9211;48.818;9.312;2023-04-25T10:39:21;5.80;;;2.30;;
18172;SDS011;9211;48.818;9.312;2023-04-25T10:41:53;3.77;;;2.23;;
18172;SDS011;9211;48.818;9.312;2023-04-25T10:44:23;4.10;;;3.10;;
18172;SDS011;9211;48.818;9.312;2023-04-25T10:46:54;5.00;;;3.38;;
18172;SDS011;9211;48.818;9.312;2023-04-25T10:49:29;6.20;;;4.00;;
18172;SDS011;9211;48.818;9.312;2023-04-25T10:52:16;5.40;;;3.90;;
18172;SDS011;9211;48.818;9.312;2023-04-25T10:54:49;6.32;;;3.80;;
18172;SDS011;9211;48.818;9.312;2023-04-25T10:57:28;5.95;;;4.47;;
18172;SDS011;9211;48.818;9.312;2023-04-25T11:00:01;6.13;;;4.43;;
18172;SDS011;9211;48.818;9.312;2023-04-25T11:02:36;6.60;;;4.47;;
18172;SDS011;9211;48.818;9.312;2023-04-25T11:05:04;6.97;;;3.90;;
18172;SDS011;9211;48.818;9.312;2023-04-25T11:07:34;7.13;;;4.78;;
18172;SDS011;9211;48.818;9.312;2023-04-25T11:10:05;10.20;;;5.00;;
18172;SDS011;9211;48.818;9.312;2023-04-25T11:12:33;9.65;;;5.50;;
18172;SDS011;9211;48.818;9.312;2023-04-25T11:15:02;7.77;;;5.43;;
18172;SDS011;9211;48.818;9.312;2023-04-25T11:17:30;9.40;;;5.93;;
18172;SDS011;9211;48.818;9.312;2023-04-25T11:19:58;8.32;;;5.93;;
18172;SDS011;9211;48.818;9.312;2023-04-25T11:22:26;7.85;;;4.95;;
18172;SDS011;9211;48.818;9.312;2023-04-25T11:24:55;7.85;;;5.13;;
18172;SDS011;9211;48.818;9.312;2023-04-25T11:27:22;8.63;;;5.55;;
18172;SDS011;9211;48.818;9.312;2023-04-25T11:29:50;9.32;;;5.70;;
18172;SDS011;9211;48.818;9.312;2023-04-25T11:32:20;7.22;;;4.05;;
18172;SDS011;9211;48.818;9.312;2023-04-25T11:34:47;6.07;;;4.30;;
18172;SDS011;9211;48.818;9.312;2023-04-25T11:37:14;5.50;;;4.10;;
18172;SDS011;9211;48.818;9.312;2023-04-25T11:39:44;5.97;;;3.90;;
18172;SDS011;9211;48.818;9.312;2023-04-25T11:42:12;5.30;;;3.50;;
18172;SDS011;9211;48.818;9.312;2023-04-25T11:44:39;4.72;;;3.50;;
18172;SDS011;9211;48.818;9.312;2023-04-25T11:47:06;4.20;;;3.20;;
18172;SDS011;9211;48.818;9.312;2023-04-25T11:49:35;4.70;;;3.38;;
18172;SDS011;9211;48.818;9.312;2023-04-25T11:52:02;4.28;;;3.13;;
18172;SDS011;9211;48.818;9.312;2023-04-25T11:54:29;4.00;;;3.22;;
18172;SDS011;9211;48.818;9.312;2023-04-25T11:56:56;5.18;;;3.60;;
18172;SDS011;9211;48.818;9.312;2023-04-25T11:59:24;4.03;;;3.03;;
18172;SDS011;9211;48.818;9.312;2023-04-25T12:01:52;3.75;;;2.35;;
18172;SDS011;9211;48.818;9.312;2023-04-25T12:04:20;4.70;;;2.60;;
18172;SDS011;9211;48.818;9.312;2023-04-25T12:06:49;4.28;;;2.72;;
18172;SDS011;9211;48.818;9.312;2023-04-25T12:09:18;3.90;;;2.70;;
18172;SDS011;9211;48.818;9.312;2023-04-25T12:11:47;4.60;;;3.40;;
18172;SDS011;9211;48.818;9.312;2023-04-25T12:14:22;4.35;;;3.33;;
18172;SDS011;9211;48.818;9.312;2023-04-25T12:16:50;6.40;;;3.50;;
18172;SDS011;9211;48.818;9.312;2023-04-25T12:19:19;5.40;;;3.90;;
18172;SDS011;9211;48.818;9.312;2023-04-25T12:21:46;6.28;;;3.53;;
18172;SDS011;9211;48.818;9.312;2023-04-25T12:24:16;6.00;;;3.70;;
18172;SDS011;9211;48.818;9.312;2023-04-25T12:26:51;5.47;;;3.90;;
18172;SDS011;9211;48.818;9.312;2023-04-25T12:29:19;5.03;;;3.58;;
18172;SDS011;9211;48.818;9.312;2023-04-25T12:31:48;5.90;;;3.90;;
18172;SDS011;9211;48.818;9.312;2023-04-25T12:34:16;8.98;;;4.32;;
18172;SDS011;9211;48.818;9.312;2023-04-25T12:36:43;7.18;;;3.92;;
18172;SDS011;9211;48.818;9.312;2023-04-25T12:39:18;8.13;;;4.40;;
18172;SDS011;9211;48.818;9.312;2023-04-25T12:41:46;8.38;;;5.03;;
18172;SDS011;9211;48.818;9.312;2023-04-25T12:44:14;8.90;;;5.13;;
18172;SDS011;9211;48.818;9.312;2023-04-25T12:46:41;11.38;;;5.60;;
18172;SDS011;9211;48.818;9.312;2023-04-25T12:49:08;10.73;;;5.57;;
18172;SDS011;9211;48.818;9.312;2023-04-25T12:51:35;10.55;;;5.63;;
18172;SDS011;9211;48.818;9.312;2023-04-25T12:54:03;9.23;;;5.43;;
18172;SDS011;9211;48.818;9.312;2023-04-25T12:56:32;9.05;;;5.30;;
18172;SDS011;9211;48.818;9.312;2023-04-25T12:59:00;11.73;;;5.78;;
18172;SDS011;9211;48.818;9.312;2023-04-25T13:01:28;10.15;;;5.78;;
18172;SDS011;9211;48.818;9.312;2023-04-25T13:03:55;10.13;;;5.27;;
18172;SDS011;9211;48.818;9.312;2023-04-25T13:06:22;8.87;;;5.20;;
18172;SDS011;9211;48.818;9.312;2023-04-25T13:08:49;7.47;;;5.15;;
18172;SDS011;9211;48.818;9.312;2023-04-25T13:11:17;8.15;;;5.28;;
18172;SDS011;9211;48.818;9.312;2023-04-25T13:13:45;9.98;;;5.55;;
18172;SDS011;9211;48.818;9.312;2023-04-25T13:16:12;8.23;;;5.50;;
18172;SDS011;9211;48.818;9.312;2023-04-25T13:18:40;9.50;;;5.43;;
18172;SDS011;9211;48.818;9.312;2023-04-25T13:21:07;9.70;;;5.55;;
18172;SDS011;9211;48.818;9.312;2023-04-25T13:23:36;8.65;;;5.60;;
18172;SDS011;9211;48.818;9.312;2023-04-25T13:26:03;8.73;;;5.50;;
18172;SDS011;9211;48.818;9.312;2023-04-25T13:28:30;8.55;;;5.22;;
18172;SDS011;9211;48.818;9.312;2023-04-25T13:30:58;9.60;;;5.70;;
18172;SDS011;9211;48.818;9.312;2023-04-25T13:33:25;7.28;;;4.90;;
18172;SDS011;9211;48.818;9.312;2023-04-25T13:35:52;9.35;;;5.90;;
18172;SDS011;9211;48.818;9.312;2023-04-25T13:38:21;8.27;;;5.75;;
18172;SDS011;9211;48.818;9.312;2023-04-25T13:40:49;8.65;;;5.57;;
18172;SDS011;9211;48.818;9.312;2023-04-25T13:43:18;10.40;;;6.15;;
18172;SDS011;9211;48.818;9.312;2023-04-25T13:45:45;9.98;;;5.45;;
18172;SDS011;9211;48.818;9.312;2023-04-25T13:48:14;8.90;;;5.50;;
18172;SDS011;9211;48.818;9.312;2023-04-25T13:50:41;9.13;;;5.90;;
18172;SDS011;9211;48.818;9.312;2023-04-25T13:53:08;8.10;;;5.35;;
18172;SDS011;9211;48.818;9.312;2023-04-25T13:55:35;10.10;;;5.90;;
18172;SDS011;9211;48.818;9.312;2023-04-25T13:58:03;10.60;;;5.90;;
18172;SDS011;9211;48.818;9.312;2023-04-25T14:00:33;10.70;;;5.72;;
18172;SDS011;9211;48.818;9.312;2023-04-25T14:03:02;9.65;;;6.00;;
18172;SDS011;9211;48.818;9.312;2023-04-25T14:05:33;11.30;;;6.30;;
18172;SDS011;9211;48.818;9.312;2023-04-25T14:08:04;11.52;;;6.40;;
18172;SDS011;9211;48.818;9.312;2023-04-25T14:10:32;10.80;;;7.47;;
18172;SDS011;9211;48.818;9.312;2023-04-25T14:12:59;11.27;;;7.07;;
18172;SDS011;9211;48.818;9.312;2023-04-25T14:15:28;13.27;;;7.63;;
18172;SDS011;9211;48.818;9.312;2023-04-25T14:17:56;13.23;;;7.47;;
18172;SDS011;9211;48.818;9.312;2023-04-25T14:20:23;13.25;;;7.38;;
18172;SDS011;9211;48.818;9.312;2023-04-25T14:22:52;12.80;;;7.07;;
18172;SDS011;9211;48.818;9.312;2023-04-25T14:25:21;10.55;;;7.00;;
18172;SDS011;9211;48.818;9.312;2023-04-25T14:27:48;12.35;;;7.40;;
18172;SDS011;9211;48.818;9.312;2023-04-25T14:30:16;11.45;;;7.07;;
18172;SDS011;9211;48.818;9.312;2023-04-25T14:32:43;11.20;;;6.90;;
18172;SDS011;9211;48.818;9.312;2023-04-25T14:35:11;11.85;;;7.20;;
18172;SDS011;9211;48.818;9.312;2023-04-25T14:37:38;9.02;;;5.95;;
18172;SDS011;9211;48.818;9.312;2023-04-25T14:40:07;10.93;;;6.60;;
18172;SDS011;9211;48.818;9.312;2023-04-25T14:42:37;8.90;;;5.80;;
18172;SDS011;9211;48.818;9.312;2023-04-25T14:45:04;8.90;;;5.43;;
18172;SDS011;9211;48.818;9.312;2023-04-25T14:47:33;9.52;;;5.60;;
18172;SDS011;9211;48.818;9.312;2023-04-25T14:50:01;8.43;;;5.88;;
18172;SDS011;9211;48.818;9.312;2023-04-25T14:52:29;9.07;;;6.13;;
18172;SDS011;9211;48.818;9.312;2023-04-25T14:54:56;8.70;;;5.57;;
18172;SDS011;9211;48.818;9.312;2023-04-25T14:57:26;11.15;;;5.60;;
18172;SDS011;9211;48.818;9.312;2023-04-25T14:59:53;8.80;;;5.60;;
18172;SDS011;9211;48.818;9.312;2023-04-25T15:02:20;9.70;;;5.60;;
18172;SDS011;9211;48.818;9.312;2023-04-25T15:04:47;9.67;;;5.50;;
18172;SDS011;9211;48.818;9.312;2023-04-25T15:07:14;11.40;;;5.40;;
18172;SDS011;9211;48.818;9.312;2023-04-25T15:09:41;8.98;;;5.38;;
18172;SDS011;9211;48.818;9.312;2023-04-25T15:12:08;9.63;;;5.20;;
18172;SDS011;9211;48.818;9.312;2023-04-25T15:14:37;9.65;;;5.90;;
18172;SDS011;9211;48.818;9.312;2023-04-25T15:17:04;10.50;;;5.70;;
18172;SDS011;9211;48.818;9.312;2023-04-25T15:19:31;8.98;;;5.47;;
18172;SDS011;9211;48.818;9.312;2023-04-25T15:21:58;10.30;;;5.93;;